Webcam & Weather

This webcam image will automatically refresh every 15 seconds.


METAR and TAF for EGLL Heathrow (12 Nautical Miles East of White Waltham)

METAR FOR EGLL (Issued: Tue, May 30th 2017 8:50 AM UTC):
EGLL 300850Z AUTO 24009KT 210V280 9999 FEW015 OVC042 17/13 Q1015

TAF FOR EGLL (Issued: Tue, May 30th 2017 6:57 AM UTC):
TAF AMD EGLL 300655Z 3006/3112 26010KT 9999 SCT030 TEMPO 3006/3008 BKN012 BECMG 3023/3102 VRB03KT PROB30 TEMPO 3102/3107 8000 BKN007

Play 24 hour timelapse | Play 30 day timelapse

Comments are closed.